sensor_id;sensor_type;location;lat;lon;timestamp;pressure;altitude;pressure_sealevel;temperature;humidity
7962;BME280;4026;43.652;24.906;2023-02-01T00:02:03;99221.34;;;0.30;100.00
7962;BME280;4026;43.652;24.906;2023-02-01T00:04:30;99212.22;;;0.27;100.00
7962;BME280;4026;43.652;24.906;2023-02-01T00:06:57;99222.47;;;0.19;100.00
7962;BME280;4026;43.652;24.906;2023-02-01T00:09:24;99219.22;;;0.16;100.00
7962;BME280;4026;43.652;24.906;2023-02-01T00:11:50;99218.41;;;0.15;100.00
7962;BME280;4026;43.652;24.906;2023-02-01T00:14:17;99221.00;;;0.12;100.00
7962;BME280;4026;43.652;24.906;2023-02-01T00:16:46;99228.53;;;0.12;100.00
7962;BME280;4026;43.652;24.906;2023-02-01T00:19:14;99218.34;;;0.17;100.00
7962;BME280;4026;43.652;24.906;2023-02-01T00:21:41;99214.13;;;0.17;100.00
7962;BME280;4026;43.652;24.906;2023-02-01T00:24:09;99223.53;;;0.12;100.00
7962;BME280;4026;43.652;24.906;2023-02-01T00:26:38;99215.09;;;0.13;100.00
7962;BME280;4026;43.652;24.906;2023-02-01T00:29:08;99221.75;;;0.14;100.00
7962;BME280;4026;43.652;24.906;2023-02-01T00:31:36;99220.22;;;0.10;100.00
7962;BME280;4026;43.652;24.906;2023-02-01T00:34:05;99221.69;;;0.17;100.00
7962;BME280;4026;43.652;24.906;2023-02-01T00:36:32;99221.75;;;0.14;100.00
7962;BME280;4026;43.652;24.906;2023-02-01T00:38:58;99225.41;;;0.04;100.00
7962;BME280;4026;43.652;24.906;2023-02-01T00:41:26;99226.97;;;0.08;100.00
7962;BME280;4026;43.652;24.906;2023-02-01T00:43:53;99226.16;;;0.08;100.00
7962;BME280;4026;43.652;24.906;2023-02-01T00:46:20;99232.16;;;0.02;100.00
7962;BME280;4026;43.652;24.906;2023-02-01T00:48:48;99232.06;;;0.05;100.00
7962;BME280;4026;43.652;24.906;2023-02-01T00:51:19;99234.41;;;0.11;100.00
7962;BME280;4026;43.652;24.906;2023-02-01T00:53:46;99245.59;;;0.01;100.00
7962;BME280;4026;43.652;24.906;2023-02-01T00:56:13;99237.19;;;0.02;100.00
7962;BME280;4026;43.652;24.906;2023-02-01T00:58:40;99236.47;;;-0.03;100.00
7962;BME280;4026;43.652;24.906;2023-02-01T01:01:08;99238.94;;;0.00;100.00
7962;BME280;4026;43.652;24.906;2023-02-01T01:03:37;99231.50;;;-0.05;100.00
7962;BME280;4026;43.652;24.906;2023-02-01T01:06:06;99229.03;;;-0.06;100.00
7962;BME280;4026;43.652;24.906;2023-02-01T01:08:35;99222.34;;;-0.06;100.00
7962;BME280;4026;43.652;24.906;2023-02-01T01:11:05;99227.47;;;-0.10;100.00
7962;BME280;4026;43.652;24.906;2023-02-01T01:13:32;99220.97;;;-0.17;100.00
7962;BME280;4026;43.652;24.906;2023-02-01T01:16:00;99212.66;;;-0.19;100.00
7962;BME280;4026;43.652;24.906;2023-02-01T01:18:28;99212.41;;;-0.10;100.00
7962;BME280;4026;43.652;24.906;2023-02-01T01:20:55;99201.34;;;-0.05;100.00
7962;BME280;4026;43.652;24.906;2023-02-01T01:23:23;99213.56;;;0.09;100.00
7962;BME280;4026;43.652;24.906;2023-02-01T01:25:51;99212.50;;;0.16;100.00
7962;BME280;4026;43.652;24.906;2023-02-01T01:28:18;99198.22;;;0.18;100.00
7962;BME280;4026;43.652;24.906;2023-02-01T01:30:45;99212.28;;;0.24;100.00
7962;BME280;4026;43.652;24.906;2023-02-01T01:33:12;99200.66;;;0.20;100.00
7962;BME280;4026;43.652;24.906;2023-02-01T01:35:39;99212.50;;;0.16;100.00
7962;BME280;4026;43.652;24.906;2023-02-01T01:38:06;99215.19;;;0.10;100.00
7962;BME280;4026;43.652;24.906;2023-02-01T01:40:33;99215.22;;;0.09;100.00
7962;BME280;4026;43.652;24.906;2023-02-01T01:43:01;99213.63;;;0.06;100.00
7962;BME280;4026;43.652;24.906;2023-02-01T01:45:30;99213.81;;;0.00;100.00
7962;BME280;4026;43.652;24.906;2023-02-01T01:47:59;99208.53;;;0.09;100.00
7962;BME280;4026;43.652;24.906;2023-02-01T01:50:31;99210.41;;;0.01;100.00
7962;BME280;4026;43.652;24.906;2023-02-01T01:53:01;99210.41;;;0.01;100.00
7962;BME280;4026;43.652;24.906;2023-02-01T01:55:32;99202.91;;;-0.01;100.00
7962;BME280;4026;43.652;24.906;2023-02-01T01:58:05;99202.69;;;0.07;100.00
7962;BME280;4026;43.652;24.906;2023-02-01T02:00:33;99202.00;;;0.02;100.00
7962;BME280;4026;43.652;24.906;2023-02-01T02:03:03;99198.59;;;0.05;100.00
7962;BME280;4026;43.652;24.906;2023-02-01T02:05:33;99199.84;;;0.19;100.00
7962;BME280;4026;43.652;24.906;2023-02-01T02:08:00;99200.53;;;0.25;100.00
7962;BME280;4026;43.652;24.906;2023-02-01T02:10:27;99203.94;;;0.24;100.00
7962;BME280;4026;43.652;24.906;2023-02-01T02:13:10;99205.66;;;0.21;100.00
7962;BME280;4026;43.652;24.906;2023-02-01T02:15:43;99203.22;;;0.18;100.00
7962;BME280;4026;43.652;24.906;2023-02-01T02:18:16;99213.19;;;0.21;100.00
7962;BME280;4026;43.652;24.906;2023-02-01T02:21:02;99218.22;;;0.21;100.00
7962;BME280;4026;43.652;24.906;2023-02-01T02:24:05;99200.00;;;0.13;100.00
7962;BME280;4026;43.652;24.906;2023-02-01T02:27:00;99210.06;;;0.13;100.00
7962;BME280;4026;43.652;24.906;2023-02-01T02:36:00;99224.25;;;0.16;100.00
7962;BME280;4026;43.652;24.906;2023-02-01T02:38:33;99215.91;;;0.14;100.00
7962;BME280;4026;43.652;24.906;2023-02-01T02:41:12;99216.91;;;0.08;100.00
7962;BME280;4026;43.652;24.906;2023-02-01T02:44:11;99226.97;;;0.08;100.00
7962;BME280;4026;43.652;24.906;2023-02-01T02:47:03;99221.75;;;0.14;100.00
7962;BME280;4026;43.652;24.906;2023-02-01T02:49:53;99225.16;;;0.13;100.00
7962;BME280;4026;43.652;24.906;2023-02-01T02:52:41;99224.34;;;0.13;100.00
7962;BME280;4026;43.652;24.906;2023-02-01T02:55:28;99228.38;;;0.18;100.00
7962;BME280;4026;43.652;24.906;2023-02-01T02:57:58;99227.66;;;0.15;100.00
7962;BME280;4026;43.652;24.906;2023-02-01T03:00:43;99233.66;;;0.09;100.00
7962;BME280;4026;43.652;24.906;2023-02-01T03:03:28;99230.59;;;-0.02;100.00
7962;BME280;4026;43.652;24.906;2023-02-01T03:06:13;99232.16;;;0.02;100.00
7962;BME280;4026;43.652;24.906;2023-02-01T03:08:42;99235.38;;;0.07;100.00
7962;BME280;4026;43.652;24.906;2023-02-01T03:11:13;99239.00;;;-0.03;100.00
7962;BME280;4026;43.652;24.906;2023-02-01T03:13:45;99242.22;;;0.02;100.00
7962;BME280;4026;43.652;24.906;2023-02-01T03:16:19;99239.84;;;-0.03;100.00
7962;BME280;4026;43.652;24.906;2023-02-01T03:18:55;99244.09;;;-0.06;100.00
7962;BME280;4026;43.652;24.906;2023-02-01T03:21:26;99244.72;;;0.02;100.00
7962;BME280;4026;43.652;24.906;2023-02-01T03:23:58;99250.13;;;-0.12;100.00
7962;BME280;4026;43.652;24.906;2023-02-01T03:26:29;99241.66;;;-0.09;100.00
7962;BME280;4026;43.652;24.906;2023-02-01T03:29:02;99248.31;;;-0.07;100.00
7962;BME280;4026;43.652;24.906;2023-02-01T03:31:30;99244.25;;;-0.12;100.00
7962;BME280;4026;43.652;24.906;2023-02-01T03:33:57;99250.97;;;-0.11;100.00
7962;BME280;4026;43.652;24.906;2023-02-01T03:36:27;99245.13;;;-0.13;100.00
7962;BME280;4026;43.652;24.906;2023-02-01T03:39:02;99244.25;;;-0.12;100.00
7962;BME280;4026;43.652;24.906;2023-02-01T03:41:35;99241.19;;;-0.24;100.00
7962;BME280;4026;43.652;24.906;2023-02-01T03:44:11;99238.75;;;-0.25;100.00
7962;BME280;4026;43.652;24.906;2023-02-01T03:46:42;99240.59;;;-0.32;100.00
7962;BME280;4026;43.652;24.906;2023-02-01T03:49:17;99242.16;;;-0.28;100.00
7962;BME280;4026;43.652;24.906;2023-02-01T03:51:46;99238.09;;;-0.32;100.00
7962;BME280;4026;43.652;24.906;2023-02-01T03:54:17;99231.31;;;-0.30;100.00
7962;BME280;4026;43.652;24.906;2023-02-01T03:56:46;99232.91;;;-0.26;100.00
7962;BME280;4026;43.652;24.906;2023-02-01T03:59:14;99232.94;;;-0.27;100.00
7962;BME280;4026;43.652;24.906;2023-02-01T04:01:41;99227.19;;;-0.32;100.00
7962;BME280;4026;43.652;24.906;2023-02-01T04:04:09;99224.72;;;-0.34;100.00
7962;BME280;4026;43.652;24.906;2023-02-01T04:06:45;99223.69;;;-0.27;100.00
7962;BME280;4026;43.652;24.906;2023-02-01T04:09:12;99224.66;;;-0.31;100.00
7962;BME280;4026;43.652;24.906;2023-02-01T04:11:40;99239.00;;;-0.34;100.00
7962;BME280;4026;43.652;24.906;2023-02-01T04:14:07;99234.94;;;-0.40;100.00
7962;BME280;4026;43.652;24.906;2023-02-01T04:16:34;99240.03;;;-0.43;100.00
7962;BME280;4026;43.652;24.906;2023-02-01T04:19:01;99236.56;;;-0.39;100.00
7962;BME280;4026;43.652;24.906;2023-02-01T04:21:29;99241.59;;;-0.39;100.00
7962;BME280;4026;43.652;24.906;2023-02-01T04:23:56;99240.78;;;-0.39;100.00
7962;BME280;4026;43.652;24.906;2023-02-01T04:26:22;99241.44;;;-0.33;100.00
7962;BME280;4026;43.652;24.906;2023-02-01T04:28:51;99243.13;;;-0.32;100.00
7962;BME280;4026;43.652;24.906;2023-02-01T04:31:19;99238.81;;;-0.28;100.00
7962;BME280;4026;43.652;24.906;2023-02-01T04:33:51;99241.41;;;-0.31;100.00
7962;BME280;4026;43.652;24.906;2023-02-01T04:36:19;99236.41;;;-0.33;100.00
7962;BME280;4026;43.652;24.906;2023-02-01T04:38:47;99233.88;;;-0.31;100.00
7962;BME280;4026;43.652;24.906;2023-02-01T04:41:14;99232.97;;;-0.29;100.00
7962;BME280;4026;43.652;24.906;2023-02-01T04:43:44;99234.53;;;-0.25;100.00
7962;BME280;4026;43.652;24.906;2023-02-01T04:46:13;99227.72;;;-0.19;100.00
7962;BME280;4026;43.652;24.906;2023-02-01T04:48:40;99230.31;;;-0.22;100.00
7962;BME280;4026;43.652;24.906;2023-02-01T04:51:08;99236.19;;;-0.24;100.00
7962;BME280;4026;43.652;24.906;2023-02-01T04:53:35;99224.66;;;-0.31;100.00
7962;BME280;4026;43.652;24.906;2023-02-01T04:56:02;99237.06;;;-0.25;100.00
7962;BME280;4026;43.652;24.906;2023-02-01T04:58:29;99234.53;;;-0.25;100.00
7962;BME280;4026;43.652;24.906;2023-02-01T05:00:56;99241.28;;;-0.27;100.00
7962;BME280;4026;43.652;24.906;2023-02-01T05:03:24;99238.50;;;-0.16;100.00
7962;BME280;4026;43.652;24.906;2023-02-01T05:05:51;99239.53;;;-0.23;100.00
7962;BME280;4026;43.652;24.906;2023-02-01T05:08:18;99236.25;;;-0.27;100.00
7962;BME280;4026;43.652;24.906;2023-02-01T05:10:48;99247.97;;;-0.26;100.00
7962;BME280;4026;43.652;24.906;2023-02-01T05:13:14;99248.13;;;-0.32;100.00
7962;BME280;4026;43.652;24.906;2023-02-01T05:15:59;99238.00;;;-0.29;100.00
7962;BME280;4026;43.652;24.906;2023-02-01T05:18:27;99246.53;;;-0.36;100.00
7962;BME280;4026;43.652;24.906;2023-02-01T05:20:55;99244.91;;;-0.37;100.00
7962;BME280;4026;43.652;24.906;2023-02-01T05:23:22;99259.25;;;-0.42;100.00
7962;BME280;4026;43.652;24.906;2023-02-01T05:25:48;99269.28;;;-0.40;100.00
7962;BME280;4026;43.652;24.906;2023-02-01T05:28:15;99269.22;;;-0.39;100.00
7962;BME280;4026;43.652;24.906;2023-02-01T05:30:42;99258.31;;;-0.38;100.00
7962;BME280;4026;43.652;24.906;2023-02-01T05:33:09;99269.91;;;-0.32;100.00
7962;BME280;4026;43.652;24.906;2023-02-01T05:35:37;99281.63;;;-0.33;100.00
7962;BME280;4026;43.652;24.906;2023-02-01T05:38:04;99280.06;;;-0.37;100.00
7962;BME280;4026;43.652;24.906;2023-02-01T05:40:31;99278.47;;;-0.41;100.00
7962;BME280;4026;43.652;24.906;2023-02-01T05:42:58;99283.38;;;-0.35;100.00
7962;BME280;4026;43.652;24.906;2023-02-01T05:45:25;99277.59;;;-0.38;100.00
7962;BME280;4026;43.652;24.906;2023-02-01T05:47:52;99274.22;;;-0.37;100.00
7962;BME280;4026;43.652;24.906;2023-02-01T05:50:18;99270.94;;;-0.41;100.00
7962;BME280;4026;43.652;24.906;2023-02-01T05:52:47;99261.03;;;-0.46;100.00
7962;BME280;4026;43.652;24.906;2023-02-01T05:55:14;99264.44;;;-0.48;100.00
7962;BME280;4026;43.652;24.906;2023-02-01T05:57:41;99264.13;;;-0.36;100.00
7962;BME280;4026;43.652;24.906;2023-02-01T06:00:09;99261.59;;;-0.34;100.00
7962;BME280;4026;43.652;24.906;2023-02-01T06:02:36;99251.66;;;-0.39;100.00
7962;BME280;4026;43.652;24.906;2023-02-01T06:05:03;99254.13;;;-0.37;100.00
7962;BME280;4026;43.652;24.906;2023-02-01T06:07:30;99252.38;;;-0.34;100.00
7962;BME280;4026;43.652;24.906;2023-02-01T06:09:59;99257.31;;;-0.31;100.00
7962;BME280;4026;43.652;24.906;2023-02-01T06:12:26;99256.34;;;-0.25;100.00
7962;BME280;4026;43.652;24.906;2023-02-01T06:14:54;99256.50;;;-0.31;100.00
7962;BME280;4026;43.652;24.906;2023-02-01T06:17:20;99264.59;;;-0.21;100.00
7962;BME280;4026;43.652;24.906;2023-02-01T06:19:47;99268.00;;;-0.22;100.00
7962;BME280;4026;43.652;24.906;2023-02-01T06:22:14;99267.03;;;-0.17;100.00
7962;BME280;4026;43.652;24.906;2023-02-01T06:24:41;99277.72;;;-0.10;100.00
7962;BME280;4026;43.652;24.906;2023-02-01T06:27:09;99280.97;;;-0.05;100.00
7962;BME280;4026;43.652;24.906;2023-02-01T06:29:37;99282.34;;;0.05;100.00
7962;BME280;4026;43.652;24.906;2023-02-01T06:32:04;99279.72;;;0.10;100.00
7962;BME280;4026;43.652;24.906;2023-02-01T06:34:31;99283.59;;;0.21;100.00
7962;BME280;4026;43.652;24.906;2023-02-01T06:36:58;99289.38;;;0.25;100.00
7962;BME280;4026;43.652;24.906;2023-02-01T06:39:24;99290.88;;;0.31;100.00
7962;BME280;4026;43.652;24.906;2023-02-01T06:41:52;99291.38;;;0.43;100.00
7962;BME280;4026;43.652;24.906;2023-02-01T06:44:21;99285.41;;;0.48;100.00
7962;BME280;4026;43.652;24.906;2023-02-01T06:46:48;99295.13;;;0.60;100.00
7962;BME280;4026;43.652;24.906;2023-02-01T06:49:14;99288.00;;;0.74;100.00
7962;BME280;4026;43.652;24.906;2023-02-01T06:51:41;99281.78;;;0.86;100.00
7962;BME280;4026;43.652;24.906;2023-02-01T06:54:09;99291.19;;;1.07;100.00
7962;BME280;4026;43.652;24.906;2023-02-01T06:56:36;99290.66;;;1.26;100.00
7962;BME280;4026;43.652;24.906;2023-02-01T06:59:04;99281.81;;;1.39;100.00
7962;BME280;4026;43.652;24.906;2023-02-01T07:01:32;99292.56;;;1.71;100.00
7962;BME280;4026;43.652;24.906;2023-02-01T07:03:59;99289.47;;;1.63;100.00
7962;BME280;4026;43.652;24.906;2023-02-01T07:06:26;99284.03;;;2.00;100.00
7962;BME280;4026;43.652;24.906;2023-02-01T07:08:53;99282.47;;;2.21;100.00
7962;BME280;4026;43.652;24.906;2023-02-01T07:11:21;99295.13;;;2.68;100.00
7962;BME280;4026;43.652;24.906;2023-02-01T07:13:49;99285.94;;;3.31;100.00
7962;BME280;4026;43.652;24.906;2023-02-01T07:16:17;99285.78;;;3.14;100.00
7962;BME280;4026;43.652;24.906;2023-02-01T07:18:46;99288.31;;;2.92;100.00
7962;BME280;4026;43.652;24.906;2023-02-01T07:21:13;99284.75;;;2.98;100.00
7962;BME280;4026;43.652;24.906;2023-02-01T07:23:40;99294.34;;;2.88;100.00
7962;BME280;4026;43.652;24.906;2023-02-01T07:26:10;99298.16;;;3.00;100.00
7962;BME280;4026;43.652;24.906;2023-02-01T07:28:38;99288.19;;;3.39;100.00
7962;BME280;4026;43.652;24.906;2023-02-01T07:31:06;99301.38;;;3.88;100.00
7962;BME280;4026;43.652;24.906;2023-02-01T07:33:34;99303.44;;;4.78;100.00
7962;BME280;4026;43.652;24.906;2023-02-01T07:36:04;99298.00;;;5.04;100.00
7962;BME280;4026;43.652;24.906;2023-02-01T07:38:32;99301.88;;;4.17;100.00
7962;BME280;4026;43.652;24.906;2023-02-01T07:40:59;99295.06;;;3.35;100.00
7962;BME280;4026;43.652;24.906;2023-02-01T07:43:26;99298.56;;;2.87;100.00
7962;BME280;4026;43.652;24.906;2023-02-01T07:45:54;99299.94;;;2.51;100.00
7962;BME280;4026;43.652;24.906;2023-02-01T07:48:22;99295.63;;;2.29;100.00
7962;BME280;4026;43.652;24.906;2023-02-01T07:50:57;99306.16;;;2.17;100.00
7962;BME280;4026;43.652;24.906;2023-02-01T07:53:25;99308.78;;;2.14;100.00
7962;BME280;4026;43.652;24.906;2023-02-01T07:55:52;99308.69;;;2.17;100.00
7962;BME280;4026;43.652;24.906;2023-02-01T07:58:19;99303.97;;;2.08;100.00
7962;BME280;4026;43.652;24.906;2023-02-01T08:00:45;99296.25;;;1.87;100.00
7962;BME280;4026;43.652;24.906;2023-02-01T08:03:30;99296.72;;;1.98;100.00
7962;BME280;4026;43.652;24.906;2023-02-01T08:05:57;99295.13;;;2.90;100.00
7962;BME280;4026;43.652;24.906;2023-02-01T08:08:25;99297.63;;;3.56;100.00
7962;BME280;4026;43.652;24.906;2023-02-01T08:10:57;99295.88;;;3.99;100.00
7962;BME280;4026;43.652;24.906;2023-02-01T08:13:24;99298.38;;;4.19;100.00
7962;BME280;4026;43.652;24.906;2023-02-01T08:15:51;99302.38;;;4.82;100.00
7962;BME280;4026;43.652;24.906;2023-02-01T08:18:18;99300.88;;;4.96;100.00
7962;BME280;4026;43.652;24.906;2023-02-01T08:20:46;99296.94;;;5.08;100.00
7962;BME280;4026;43.652;24.906;2023-02-01T08:23:13;99302.91;;;4.31;100.00
7962;BME280;4026;43.652;24.906;2023-02-01T08:25:41;99300.84;;;4.21;100.00
7962;BME280;4026;43.652;24.906;2023-02-01T08:28:08;99297.13;;;3.68;100.00
7962;BME280;4026;43.652;24.906;2023-02-01T08:30:36;99294.69;;;3.45;100.00
7962;BME280;4026;43.652;24.906;2023-02-01T08:33:03;99297.88;;;3.28;100.00
7962;BME280;4026;43.652;24.906;2023-02-01T08:35:31;99299.63;;;3.26;100.00
7962;BME280;4026;43.652;24.906;2023-02-01T08:37:58;99297.56;;;3.15;100.00
7962;BME280;4026;43.652;24.906;2023-02-01T08:40:25;99297.75;;;3.31;100.00
7962;BME280;4026;43.652;24.906;2023-02-01T08:42:53;99297.59;;;3.35;100.00
7962;BME280;4026;43.652;24.906;2023-02-01T08:45:22;99307.88;;;3.53;100.00
7962;BME280;4026;43.652;24.906;2023-02-01T08:47:50;99302.31;;;3.65;100.00
7962;BME280;4026;43.652;24.906;2023-02-01T08:50:17;99304.66;;;3.70;100.00
7962;BME280;4026;43.652;24.906;2023-02-01T08:52:44;99309.59;;;3.93;100.00
7962;BME280;4026;43.652;24.906;2023-02-01T08:55:12;99307.16;;;4.50;100.00
7962;BME280;4026;43.652;24.906;2023-02-01T08:57:40;99307.06;;;4.32;100.00
7962;BME280;4026;43.652;24.906;2023-02-01T09:00:11;99316.22;;;4.16;100.00
7962;BME280;4026;43.652;24.906;2023-02-01T09:02:39;99307.38;;;4.06;100.00
7962;BME280;4026;43.652;24.906;2023-02-01T09:05:06;99307.94;;;4.13;100.00
7962;BME280;4026;43.652;24.906;2023-02-01T09:07:34;99305.50;;;4.30;100.00
7962;BME280;4026;43.652;24.906;2023-02-01T09:10:01;99302.91;;;4.31;100.00
7962;BME280;4026;43.652;24.906;2023-02-01T09:12:28;99297.59;;;4.38;100.00
7962;BME280;4026;43.652;24.906;2023-02-01T09:14:56;99291.44;;;4.62;100.00
7962;BME280;4026;43.652;24.906;2023-02-01T09:17:26;99293.78;;;5.22;100.00
7962;BME280;4026;43.652;24.906;2023-02-01T09:19:53;99287.94;;;5.56;100.00
7962;BME280;4026;43.652;24.906;2023-02-01T09:22:20;99288.50;;;5.79;100.00
7962;BME280;4026;43.652;24.906;2023-02-01T09:24:47;99279.25;;;6.12;100.00
7962;BME280;4026;43.652;24.906;2023-02-01T09:27:14;99264.56;;;6.67;100.00
7962;BME280;4026;43.652;24.906;2023-02-01T09:29:41;99269.97;;;7.08;100.00
7962;BME280;4026;43.652;24.906;2023-02-01T09:32:08;99261.94;;;6.84;100.00
7962;BME280;4026;43.652;24.906;2023-02-01T09:34:36;99253.38;;;7.17;99.99
7962;BME280;4026;43.652;24.906;2023-02-01T09:37:03;99251.75;;;7.00;96.39
7962;BME280;4026;43.652;24.906;2023-02-01T09:39:30;99257.19;;;6.62;98.79
7962;BME280;4026;43.652;24.906;2023-02-01T09:42:02;99255.53;;;6.77;99.73
7962;BME280;4026;43.652;24.906;2023-02-01T09:44:41;99248.59;;;6.65;100.00
7962;BME280;4026;43.652;24.906;2023-02-01T09:47:17;99244.94;;;7.00;100.00
7962;BME280;4026;43.652;24.906;2023-02-01T09:49:51;99235.66;;;7.15;98.60
7962;BME280;4026;43.652;24.906;2023-02-01T09:52:27;99240.78;;;6.99;92.81
7962;BME280;4026;43.652;24.906;2023-02-01T09:54:59;99241.47;;;6.87;93.33
7962;BME280;4026;43.652;24.906;2023-02-01T09:57:39;99225.09;;;7.37;94.72
7962;BME280;4026;43.652;24.906;2023-02-01T10:00:15;99223.44;;;7.81;93.06
7962;BME280;4026;43.652;24.906;2023-02-01T10:02:44;99225.19;;;7.80;87.23
7962;BME280;4026;43.652;24.906;2023-02-01T10:05:16;99225.94;;;7.08;89.46
7962;BME280;4026;43.652;24.906;2023-02-01T10:07:56;99227.94;;;7.17;91.53
7962;BME280;4026;43.652;24.906;2023-02-01T10:10:30;99218.13;;;7.11;91.35
7962;BME280;4026;43.652;24.906;2023-02-01T10:13:10;99220.53;;;7.28;90.99
7962;BME280;4026;43.652;24.906;2023-02-01T10:16:02;99216.00;;;7.03;91.22
7962;BME280;4026;43.652;24.906;2023-02-01T10:18:49;99230.44;;;7.77;89.24
7962;BME280;4026;43.652;24.906;2023-02-01T10:21:31;99227.50;;;7.55;83.65
7962;BME280;4026;43.652;24.906;2023-02-01T10:24:23;99213.94;;;7.10;88.42
7962;BME280;4026;43.652;24.906;2023-02-01T10:26:56;99217.22;;;7.56;88.32
7962;BME280;4026;43.652;24.906;2023-02-01T10:29:32;99212.28;;;7.83;88.40
7962;BME280;4026;43.652;24.906;2023-02-01T10:32:02;99203.72;;;7.84;83.86
7962;BME280;4026;43.652;24.906;2023-02-01T10:34:31;99182.97;;;8.19;81.21
7962;BME280;4026;43.652;24.906;2023-02-01T10:37:08;99203.72;;;7.84;82.93
7962;BME280;4026;43.652;24.906;2023-02-01T10:39:44;99203.72;;;6.95;85.52
7962;BME280;4026;43.652;24.906;2023-02-01T10:42:11;99214.47;;;6.85;86.92
7962;BME280;4026;43.652;24.906;2023-02-01T10:44:42;99200.81;;;6.55;85.54
7962;BME280;4026;43.652;24.906;2023-02-01T10:47:11;99201.78;;;6.69;89.77
7962;BME280;4026;43.652;24.906;2023-02-01T10:49:42;99186.75;;;7.26;83.73
7962;BME280;4026;43.652;24.906;2023-02-01T10:52:16;99188.63;;;7.81;85.30
7962;BME280;4026;43.652;24.906;2023-02-01T10:54:43;99177.06;;;8.19;80.58
7962;BME280;4026;43.652;24.906;2023-02-01T10:57:21;99180.06;;;8.11;80.53
7962;BME280;4026;43.652;24.906;2023-02-01T10:59:49;99174.25;;;8.23;79.20
7962;BME280;4026;43.652;24.906;2023-02-01T11:02:25;99175.25;;;8.62;78.12
7962;BME280;4026;43.652;24.906;2023-02-01T11:05:00;99170.53;;;8.56;77.02
7962;BME280;4026;43.652;24.906;2023-02-01T11:07:29;99161.91;;;8.58;74.41
7962;BME280;4026;43.652;24.906;2023-02-01T11:09:56;99163.66;;;8.29;76.63
7962;BME280;4026;43.652;24.906;2023-02-01T11:12:29;99159.19;;;8.74;77.92
7962;BME280;4026;43.652;24.906;2023-02-01T11:15:14;99151.56;;;8.47;76.35
7962;BME280;4026;43.652;24.906;2023-02-01T11:17:46;99149.72;;;8.76;77.31
7962;BME280;4026;43.652;24.906;2023-02-01T11:20:14;99148.78;;;8.77;76.25
7962;BME280;4026;43.652;24.906;2023-02-01T11:22:47;99141.00;;;8.66;74.30
7962;BME280;4026;43.652;24.906;2023-02-01T11:25:16;99132.56;;;8.38;77.31
7962;BME280;4026;43.652;24.906;2023-02-01T11:27:44;99127.56;;;8.64;77.59
7962;BME280;4026;43.652;24.906;2023-02-01T11:30:16;99131.78;;;8.51;76.56
7962;BME280;4026;43.652;24.906;2023-02-01T11:32:45;99125.31;;;8.72;76.86
7962;BME280;4026;43.652;24.906;2023-02-01T11:35:17;99119.06;;;9.03;79.96
7962;BME280;4026;43.652;24.906;2023-02-01T11:37:48;99114.19;;;9.26;75.28
7962;BME280;4026;43.652;24.906;2023-02-01T11:40:27;99127.50;;;8.51;73.97
7962;BME280;4026;43.652;24.906;2023-02-01T11:42:56;99120.22;;;8.72;78.25
7962;BME280;4026;43.652;24.906;2023-02-01T11:45:28;99119.25;;;8.33;77.59
7962;BME280;4026;43.652;24.906;2023-02-01T11:47:56;99123.53;;;7.91;78.63
7962;BME280;4026;43.652;24.906;2023-02-01T11:50:30;99121.81;;;7.63;80.03
7962;BME280;4026;43.652;24.906;2023-02-01T11:53:22;99121.19;;;7.45;82.79
7962;BME280;4026;43.652;24.906;2023-02-01T11:56:09;99126.47;;;7.42;82.70
7962;BME280;4026;43.652;24.906;2023-02-01T11:59:04;99127.34;;;7.27;83.88
7962;BME280;4026;43.652;24.906;2023-02-01T12:01:44;99126.09;;;7.34;86.96
7962;BME280;4026;43.652;24.906;2023-02-01T12:04:45;99117.00;;;7.59;86.40
7962;BME280;4026;43.652;24.906;2023-02-01T12:07:20;99120.81;;;7.52;87.70
7962;BME280;4026;43.652;24.906;2023-02-01T12:10:00;99123.53;;;7.34;88.69
7962;BME280;4026;43.652;24.906;2023-02-01T12:12:38;99124.25;;;7.22;86.17
7962;BME280;4026;43.652;24.906;2023-02-01T12:15:26;99115.72;;;7.37;83.47
7962;BME280;4026;43.652;24.906;2023-02-01T12:21:21;99122.63;;;7.64;83.29
7962;BME280;4026;43.652;24.906;2023-02-01T12:24:03;99113.94;;;7.54;83.33
7962;BME280;4026;43.652;24.906;2023-02-01T12:26:44;99120.47;;;7.58;84.34
7962;BME280;4026;43.652;24.906;2023-02-01T12:32:09;99114.44;;;7.44;84.65
7962;BME280;4026;43.652;24.906;2023-02-01T12:37:50;99114.44;;;7.16;86.40
7962;BME280;4026;43.652;24.906;2023-02-01T12:40:28;99110.00;;;7.19;85.96
7962;BME280;4026;43.652;24.906;2023-02-01T12:43:03;99112.72;;;7.16;84.37
7962;BME280;4026;43.652;24.906;2023-02-01T12:45:34;99113.50;;;7.02;86.72
7962;BME280;4026;43.652;24.906;2023-02-01T12:48:19;99109.94;;;6.91;87.95
7962;BME280;4026;43.652;24.906;2023-02-01T12:50:51;99109.47;;;6.84;89.97
7962;BME280;4026;43.652;24.906;2023-02-01T12:53:23;99103.88;;;6.93;89.56
7962;BME280;4026;43.652;24.906;2023-02-01T12:55:53;99101.63;;;7.17;89.36
7962;BME280;4026;43.652;24.906;2023-02-01T12:58:25;99097.75;;;7.40;87.20
7962;BME280;4026;43.652;24.906;2023-02-01T13:00:59;99094.84;;;7.32;85.57
7962;BME280;4026;43.652;24.906;2023-02-01T13:03:34;99091.66;;;7.43;85.63
7962;BME280;4026;43.652;24.906;2023-02-01T13:06:06;99096.47;;;7.62;80.75
7962;BME280;4026;43.652;24.906;2023-02-01T13:08:41;99098.47;;;7.71;82.23
7962;BME280;4026;43.652;24.906;2023-02-01T13:11:13;99083.03;;;7.60;83.00
7962;BME280;4026;43.652;24.906;2023-02-01T13:13:54;99100.84;;;7.74;82.36
7962;BME280;4026;43.652;24.906;2023-02-01T13:16:25;99088.28;;;7.85;80.85
7962;BME280;4026;43.652;24.906;2023-02-01T13:19:02;99089.72;;;7.89;82.59
7962;BME280;4026;43.652;24.906;2023-02-01T13:21:33;99090.41;;;8.06;82.92
7962;BME280;4026;43.652;24.906;2023-02-01T13:24:01;99081.81;;;8.21;80.21
7962;BME280;4026;43.652;24.906;2023-02-01T13:26:28;99088.72;;;8.19;80.79
7962;BME280;4026;43.652;24.906;2023-02-01T13:28:59;99086.19;;;8.19;80.18
7962;BME280;4026;43.652;24.906;2023-02-01T13:31:55;99074.59;;;8.01;77.00
7962;BME280;4026;43.652;24.906;2023-02-01T13:34:45;99087.53;;;7.83;77.10
7962;BME280;4026;43.652;24.906;2023-02-01T13:37:35;99071.34;;;7.84;74.21
7962;BME280;4026;43.652;24.906;2023-02-01T13:40:22;99081.34;;;7.87;75.12
7962;BME280;4026;43.652;24.906;2023-02-01T13:42:55;99083.00;;;7.88;75.22
7962;BME280;4026;43.652;24.906;2023-02-01T13:45:26;99088.09;;;7.88;76.46
7962;BME280;4026;43.652;24.906;2023-02-01T13:47:56;99090.13;;;7.55;74.67